sensor_id;sensor_type;location;lat;lon;timestamp;P1;durP1;ratioP1;P2;durP2;ratioP2
17967;SDS011;9109;48.050;11.696;2024-02-16T00:01:32;9.00;;;3.93;;
17967;SDS011;9109;48.050;11.696;2024-02-16T00:04:36;14.20;;;4.40;;
17967;SDS011;9109;48.050;11.696;2024-02-16T00:07:39;8.13;;;3.87;;
17967;SDS011;9109;48.050;11.696;2024-02-16T00:10:42;8.33;;;3.60;;
17967;SDS011;9109;48.050;11.696;2024-02-16T00:13:44;6.33;;;3.20;;
17967;SDS011;9109;48.050;11.696;2024-02-16T00:16:47;5.83;;;2.80;;
17967;SDS011;9109;48.050;11.696;2024-02-16T00:19:51;5.97;;;2.70;;
17967;SDS011;9109;48.050;11.696;2024-02-16T00:22:55;7.07;;;3.80;;
17967;SDS011;9109;48.050;11.696;2024-02-16T00:25:57;5.87;;;2.97;;
17967;SDS011;9109;48.050;11.696;2024-02-16T00:28:59;4.13;;;2.53;;
17967;SDS011;9109;48.050;11.696;2024-02-16T00:32:01;5.43;;;2.90;;
17967;SDS011;9109;48.050;11.696;2024-02-16T00:35:04;5.00;;;2.90;;
17967;SDS011;9109;48.050;11.696;2024-02-16T00:38:07;5.60;;;3.03;;
17967;SDS011;9109;48.050;11.696;2024-02-16T00:41:16;6.57;;;3.43;;
17967;SDS011;9109;48.050;11.696;2024-02-16T00:44:20;9.53;;;3.77;;
17967;SDS011;9109;48.050;11.696;2024-02-16T00:47:23;10.00;;;3.90;;
17967;SDS011;9109;48.050;11.696;2024-02-16T00:50:25;11.80;;;4.00;;
17967;SDS011;9109;48.050;11.696;2024-02-16T00:53:29;8.30;;;4.30;;
17967;SDS011;9109;48.050;11.696;2024-02-16T00:56:31;7.63;;;4.00;;
17967;SDS011;9109;48.050;11.696;2024-02-16T00:59:33;7.17;;;3.90;;
17967;SDS011;9109;48.050;11.696;2024-02-16T01:02:36;9.50;;;3.90;;
17967;SDS011;9109;48.050;11.696;2024-02-16T01:05:40;9.03;;;4.23;;
17967;SDS011;9109;48.050;11.696;2024-02-16T01:08:44;6.77;;;3.67;;
17967;SDS011;9109;48.050;11.696;2024-02-16T01:11:46;5.50;;;3.20;;
17967;SDS011;9109;48.050;11.696;2024-02-16T01:14:48;6.30;;;3.77;;
17967;SDS011;9109;48.050;11.696;2024-02-16T01:17:50;7.10;;;3.43;;
17967;SDS011;9109;48.050;11.696;2024-02-16T01:20:53;13.37;;;3.90;;
17967;SDS011;9109;48.050;11.696;2024-02-16T01:23:57;7.43;;;3.77;;
17967;SDS011;9109;48.050;11.696;2024-02-16T01:27:01;10.20;;;4.07;;
17967;SDS011;9109;48.050;11.696;2024-02-16T01:30:03;8.50;;;3.73;;
17967;SDS011;9109;48.050;11.696;2024-02-16T01:33:05;9.57;;;3.93;;
17967;SDS011;9109;48.050;11.696;2024-02-16T01:36:08;8.13;;;3.93;;
17967;SDS011;9109;48.050;11.696;2024-02-16T01:39:12;10.23;;;3.83;;
17967;SDS011;9109;48.050;11.696;2024-02-16T01:42:14;6.40;;;3.77;;
17967;SDS011;9109;48.050;11.696;2024-02-16T01:45:16;9.20;;;3.93;;
17967;SDS011;9109;48.050;11.696;2024-02-16T01:48:21;10.87;;;3.50;;
17967;SDS011;9109;48.050;11.696;2024-02-16T01:51:24;8.07;;;3.37;;
17967;SDS011;9109;48.050;11.696;2024-02-16T01:54:28;7.97;;;3.17;;
17967;SDS011;9109;48.050;11.696;2024-02-16T01:57:31;6.90;;;3.00;;
17967;SDS011;9109;48.050;11.696;2024-02-16T02:00:33;8.07;;;3.83;;
17967;SDS011;9109;48.050;11.696;2024-02-16T02:03:35;7.77;;;3.83;;
17967;SDS011;9109;48.050;11.696;2024-02-16T02:06:38;8.23;;;3.30;;
17967;SDS011;9109;48.050;11.696;2024-02-16T02:09:41;7.93;;;3.90;;
17967;SDS011;9109;48.050;11.696;2024-02-16T02:12:44;12.43;;;4.10;;
17967;SDS011;9109;48.050;11.696;2024-02-16T02:15:46;10.50;;;3.87;;
17967;SDS011;9109;48.050;11.696;2024-02-16T02:18:48;6.47;;;3.20;;
17967;SDS011;9109;48.050;11.696;2024-02-16T02:21:50;5.63;;;3.10;;
17967;SDS011;9109;48.050;11.696;2024-02-16T02:24:54;6.70;;;3.57;;
17967;SDS011;9109;48.050;11.696;2024-02-16T02:27:56;4.30;;;2.83;;
17967;SDS011;9109;48.050;11.696;2024-02-16T02:30:58;6.03;;;3.10;;
17967;SDS011;9109;48.050;11.696;2024-02-16T02:34:00;6.30;;;2.93;;
17967;SDS011;9109;48.050;11.696;2024-02-16T02:37:05;5.00;;;2.97;;
17967;SDS011;9109;48.050;11.696;2024-02-16T02:40:09;5.30;;;2.87;;
17967;SDS011;9109;48.050;11.696;2024-02-16T02:43:12;7.97;;;2.93;;
17967;SDS011;9109;48.050;11.696;2024-02-16T02:46:14;5.40;;;3.17;;
17967;SDS011;9109;48.050;11.696;2024-02-16T02:49:18;4.20;;;2.77;;
17967;SDS011;9109;48.050;11.696;2024-02-16T02:52:20;6.17;;;2.90;;
17967;SDS011;9109;48.050;11.696;2024-02-16T02:55:24;6.47;;;2.90;;
17967;SDS011;9109;48.050;11.696;2024-02-16T02:58:27;4.57;;;2.70;;
17967;SDS011;9109;48.050;11.696;2024-02-16T03:01:29;5.90;;;2.80;;
17967;SDS011;9109;48.050;11.696;2024-02-16T03:04:32;4.70;;;2.73;;
17967;SDS011;9109;48.050;11.696;2024-02-16T03:07:34;8.13;;;3.07;;
17967;SDS011;9109;48.050;11.696;2024-02-16T03:10:38;7.20;;;3.33;;
17967;SDS011;9109;48.050;11.696;2024-02-16T03:13:40;5.27;;;2.97;;
17967;SDS011;9109;48.050;11.696;2024-02-16T03:16:44;5.40;;;2.90;;
17967;SDS011;9109;48.050;11.696;2024-02-16T03:19:46;8.07;;;2.90;;
17967;SDS011;9109;48.050;11.696;2024-02-16T03:22:49;5.97;;;3.30;;
17967;SDS011;9109;48.050;11.696;2024-02-16T03:25:53;8.50;;;2.97;;
17967;SDS011;9109;48.050;11.696;2024-02-16T03:28:56;5.80;;;2.87;;
17967;SDS011;9109;48.050;11.696;2024-02-16T03:31:58;5.43;;;2.93;;
17967;SDS011;9109;48.050;11.696;2024-02-16T03:35:01;4.07;;;2.83;;
17967;SDS011;9109;48.050;11.696;2024-02-16T03:38:04;4.63;;;2.53;;
17967;SDS011;9109;48.050;11.696;2024-02-16T03:41:07;5.40;;;2.90;;
17967;SDS011;9109;48.050;11.696;2024-02-16T03:44:10;5.33;;;2.60;;
17967;SDS011;9109;48.050;11.696;2024-02-16T03:47:13;6.33;;;2.50;;
17967;SDS011;9109;48.050;11.696;2024-02-16T03:50:15;3.87;;;2.60;;
17967;SDS011;9109;48.050;11.696;2024-02-16T03:53:17;4.67;;;2.60;;
17967;SDS011;9109;48.050;11.696;2024-02-16T03:56:21;4.17;;;2.60;;
17967;SDS011;9109;48.050;11.696;2024-02-16T03:59:23;7.63;;;3.07;;
17967;SDS011;9109;48.050;11.696;2024-02-16T04:02:26;3.80;;;2.63;;
17967;SDS011;9109;48.050;11.696;2024-02-16T04:05:28;5.23;;;2.50;;
17967;SDS011;9109;48.050;11.696;2024-02-16T04:08:32;5.03;;;2.53;;
17967;SDS011;9109;48.050;11.696;2024-02-16T04:11:37;5.17;;;2.60;;
17967;SDS011;9109;48.050;11.696;2024-02-16T04:14:39;5.33;;;2.37;;
17967;SDS011;9109;48.050;11.696;2024-02-16T04:17:41;3.50;;;2.40;;
17967;SDS011;9109;48.050;11.696;2024-02-16T04:20:44;6.03;;;2.83;;
17967;SDS011;9109;48.050;11.696;2024-02-16T04:23:47;3.17;;;1.93;;
17967;SDS011;9109;48.050;11.696;2024-02-16T04:26:52;3.67;;;2.20;;
17967;SDS011;9109;48.050;11.696;2024-02-16T04:29:56;4.03;;;2.70;;
17967;SDS011;9109;48.050;11.696;2024-02-16T04:32:58;3.30;;;2.40;;
17967;SDS011;9109;48.050;11.696;2024-02-16T04:36:01;10.23;;;2.73;;
17967;SDS011;9109;48.050;11.696;2024-02-16T04:39:04;6.30;;;2.80;;
17967;SDS011;9109;48.050;11.696;2024-02-16T04:42:08;6.80;;;2.93;;
17967;SDS011;9109;48.050;11.696;2024-02-16T04:45:14;6.63;;;2.50;;
17967;SDS011;9109;48.050;11.696;2024-02-16T04:48:16;6.03;;;2.10;;
17967;SDS011;9109;48.050;11.696;2024-02-16T04:51:18;6.40;;;2.00;;
17967;SDS011;9109;48.050;11.696;2024-02-16T04:54:20;6.40;;;2.30;;
17967;SDS011;9109;48.050;11.696;2024-02-16T04:57:24;4.93;;;2.27;;
17967;SDS011;9109;48.050;11.696;2024-02-16T05:00:27;3.60;;;2.17;;
17967;SDS011;9109;48.050;11.696;2024-02-16T05:03:31;4.77;;;2.30;;
17967;SDS011;9109;48.050;11.696;2024-02-16T05:06:38;3.77;;;1.80;;
17967;SDS011;9109;48.050;11.696;2024-02-16T05:09:40;3.57;;;2.10;;
17967;SDS011;9109;48.050;11.696;2024-02-16T05:12:45;5.87;;;2.33;;
17967;SDS011;9109;48.050;11.696;2024-02-16T05:15:47;2.70;;;1.70;;
17967;SDS011;9109;48.050;11.696;2024-02-16T05:18:49;5.57;;;2.13;;
17967;SDS011;9109;48.050;11.696;2024-02-16T05:21:51;4.60;;;2.10;;
17967;SDS011;9109;48.050;11.696;2024-02-16T05:24:54;6.13;;;2.27;;
17967;SDS011;9109;48.050;11.696;2024-02-16T05:27:57;4.57;;;2.13;;
17967;SDS011;9109;48.050;11.696;2024-02-16T05:31:03;3.90;;;1.97;;
17967;SDS011;9109;48.050;11.696;2024-02-16T05:34:18;6.77;;;2.30;;
17967;SDS011;9109;48.050;11.696;2024-02-16T05:37:23;4.70;;;2.00;;
17967;SDS011;9109;48.050;11.696;2024-02-16T05:40:29;5.03;;;2.10;;
17967;SDS011;9109;48.050;11.696;2024-02-16T05:43:48;4.60;;;1.97;;
17967;SDS011;9109;48.050;11.696;2024-02-16T05:46:50;2.77;;;1.87;;
17967;SDS011;9109;48.050;11.696;2024-02-16T05:49:55;2.70;;;1.70;;
17967;SDS011;9109;48.050;11.696;2024-02-16T05:52:58;6.60;;;1.73;;
17967;SDS011;9109;48.050;11.696;2024-02-16T05:56:01;3.77;;;1.90;;
17967;SDS011;9109;48.050;11.696;2024-02-16T05:59:05;5.53;;;1.93;;
17967;SDS011;9109;48.050;11.696;2024-02-16T06:02:12;5.67;;;1.70;;
17967;SDS011;9109;48.050;11.696;2024-02-16T06:05:14;4.37;;;1.80;;
17967;SDS011;9109;48.050;11.696;2024-02-16T06:08:19;5.73;;;1.73;;
17967;SDS011;9109;48.050;11.696;2024-02-16T06:11:21;4.60;;;1.93;;
17967;SDS011;9109;48.050;11.696;2024-02-16T06:14:25;17.03;;;2.57;;
17967;SDS011;9109;48.050;11.696;2024-02-16T06:17:27;17.63;;;2.83;;
17967;SDS011;9109;48.050;11.696;2024-02-16T06:20:29;12.60;;;2.90;;
17967;SDS011;9109;48.050;11.696;2024-02-16T06:23:32;12.97;;;2.57;;
17967;SDS011;9109;48.050;11.696;2024-02-16T06:26:35;11.53;;;2.57;;
17967;SDS011;9109;48.050;11.696;2024-02-16T06:29:41;10.07;;;2.70;;
17967;SDS011;9109;48.050;11.696;2024-02-16T06:32:43;21.93;;;2.73;;
17967;SDS011;9109;48.050;11.696;2024-02-16T06:35:46;19.47;;;2.90;;
17967;SDS011;9109;48.050;11.696;2024-02-16T06:38:51;11.30;;;2.40;;
17967;SDS011;9109;48.050;11.696;2024-02-16T06:41:53;11.60;;;2.37;;
17967;SDS011;9109;48.050;11.696;2024-02-16T06:45:00;6.23;;;2.00;;
17967;SDS011;9109;48.050;11.696;2024-02-16T06:48:03;5.00;;;2.00;;
17967;SDS011;9109;48.050;11.696;2024-02-16T06:51:06;6.93;;;1.90;;
17967;SDS011;9109;48.050;11.696;2024-02-16T06:54:08;2.60;;;1.57;;
17967;SDS011;9109;48.050;11.696;2024-02-16T06:57:17;5.93;;;2.30;;
17967;SDS011;9109;48.050;11.696;2024-02-16T07:00:21;6.57;;;2.27;;
17967;SDS011;9109;48.050;11.696;2024-02-16T07:03:23;7.97;;;2.00;;
17967;SDS011;9109;48.050;11.696;2024-02-16T07:06:25;5.43;;;1.83;;
17967;SDS011;9109;48.050;11.696;2024-02-16T07:09:28;5.97;;;2.17;;
17967;SDS011;9109;48.050;11.696;2024-02-16T07:12:32;5.27;;;2.10;;
17967;SDS011;9109;48.050;11.696;2024-02-16T07:15:41;5.87;;;1.90;;
17967;SDS011;9109;48.050;11.696;2024-02-16T07:18:43;3.93;;;1.90;;
17967;SDS011;9109;48.050;11.696;2024-02-16T07:21:47;6.80;;;2.17;;
17967;SDS011;9109;48.050;11.696;2024-02-16T07:24:50;4.30;;;1.90;;
17967;SDS011;9109;48.050;11.696;2024-02-16T07:27:52;3.10;;;1.80;;
17967;SDS011;9109;48.050;11.696;2024-02-16T07:30:58;3.43;;;1.73;;
17967;SDS011;9109;48.050;11.696;2024-02-16T07:34:03;3.97;;;1.50;;
17967;SDS011;9109;48.050;11.696;2024-02-16T07:37:10;4.33;;;2.10;;
17967;SDS011;9109;48.050;11.696;2024-02-16T07:40:13;3.27;;;2.10;;
17967;SDS011;9109;48.050;11.696;2024-02-16T07:43:22;4.13;;;2.17;;
17967;SDS011;9109;48.050;11.696;2024-02-16T07:46:29;10.83;;;1.83;;
17967;SDS011;9109;48.050;11.696;2024-02-16T07:49:31;4.57;;;2.13;;
17967;SDS011;9109;48.050;11.696;2024-02-16T07:52:34;3.30;;;1.70;;
17967;SDS011;9109;48.050;11.696;2024-02-16T07:55:36;5.70;;;1.73;;
17967;SDS011;9109;48.050;11.696;2024-02-16T07:58:42;3.17;;;1.90;;
17967;SDS011;9109;48.050;11.696;2024-02-16T08:01:46;2.83;;;1.60;;
17967;SDS011;9109;48.050;11.696;2024-02-16T08:04:54;10.20;;;2.13;;
17967;SDS011;9109;48.050;11.696;2024-02-16T08:07:57;17.93;;;2.83;;
17967;SDS011;9109;48.050;11.696;2024-02-16T08:11:14;11.60;;;2.47;;
17967;SDS011;9109;48.050;11.696;2024-02-16T08:14:16;14.33;;;2.70;;
17967;SDS011;9109;48.050;11.696;2024-02-16T08:17:34;12.33;;;2.20;;
17967;SDS011;9109;48.050;11.696;2024-02-16T08:20:47;5.67;;;1.70;;
17967;SDS011;9109;48.050;11.696;2024-02-16T08:24:00;8.93;;;2.43;;
17967;SDS011;9109;48.050;11.696;2024-02-16T08:27:07;9.10;;;2.00;;
17967;SDS011;9109;48.050;11.696;2024-02-16T08:30:09;14.57;;;1.97;;
17967;SDS011;9109;48.050;11.696;2024-02-16T08:33:17;5.43;;;1.60;;
17967;SDS011;9109;48.050;11.696;2024-02-16T08:36:25;9.63;;;1.43;;
17967;SDS011;9109;48.050;11.696;2024-02-16T08:39:30;5.70;;;1.50;;
17967;SDS011;9109;48.050;11.696;2024-02-16T08:42:37;7.43;;;1.50;;
17967;SDS011;9109;48.050;11.696;2024-02-16T08:46:05;4.83;;;1.43;;
17967;SDS011;9109;48.050;11.696;2024-02-16T08:49:11;2.30;;;1.20;;
17967;SDS011;9109;48.050;11.696;2024-02-16T08:52:14;5.10;;;1.40;;
17967;SDS011;9109;48.050;11.696;2024-02-16T08:55:19;13.73;;;2.33;;
17967;SDS011;9109;48.050;11.696;2024-02-16T08:58:21;13.17;;;2.80;;
17967;SDS011;9109;48.050;11.696;2024-02-16T09:01:29;26.10;;;2.90;;
17967;SDS011;9109;48.050;11.696;2024-02-16T09:04:33;11.27;;;1.57;;
17967;SDS011;9109;48.050;11.696;2024-02-16T09:07:36;23.67;;;2.17;;
17967;SDS011;9109;48.050;11.696;2024-02-16T09:10:38;2.15;;;1.25;;
17967;SDS011;9109;48.050;11.696;2024-02-16T09:13:41;2.27;;;0.97;;
17967;SDS011;9109;48.050;11.696;2024-02-16T09:16:43;2.83;;;1.20;;
17967;SDS011;9109;48.050;11.696;2024-02-16T09:19:46;2.17;;;1.13;;
17967;SDS011;9109;48.050;11.696;2024-02-16T09:22:49;5.10;;;1.27;;
17967;SDS011;9109;48.050;11.696;2024-02-16T09:25:53;2.80;;;1.20;;
17967;SDS011;9109;48.050;11.696;2024-02-16T09:28:56;2.63;;;1.10;;
17967;SDS011;9109;48.050;11.696;2024-02-16T09:31:58;1.90;;;1.10;;
17967;SDS011;9109;48.050;11.696;2024-02-16T09:35:05;2.42;;;0.90;;
17967;SDS011;9109;48.050;11.696;2024-02-16T09:38:09;5.55;;;1.13;;
17967;SDS011;9109;48.050;11.696;2024-02-16T09:41:12;5.72;;;1.00;;
17967;SDS011;9109;48.050;11.696;2024-02-16T09:44:16;1.58;;;0.90;;
17967;SDS011;9109;48.050;11.696;2024-02-16T09:47:19;0.95;;;0.70;;
17967;SDS011;9109;48.050;11.696;2024-02-16T09:50:24;1.10;;;0.93;;
17967;SDS011;9109;48.050;11.696;2024-02-16T09:53:28;1.80;;;0.90;;
17967;SDS011;9109;48.050;11.696;2024-02-16T09:56:31;5.63;;;1.00;;
17967;SDS011;9109;48.050;11.696;2024-02-16T09:59:40;1.35;;;0.93;;
17967;SDS011;9109;48.050;11.696;2024-02-16T10:02:54;1.27;;;0.80;;
17967;SDS011;9109;48.050;11.696;2024-02-16T10:06:08;3.42;;;0.93;;
17967;SDS011;9109;48.050;11.696;2024-02-16T10:09:21;2.37;;;1.10;;
17967;SDS011;9109;48.050;11.696;2024-02-16T10:12:23;4.65;;;1.52;;
17967;SDS011;9109;48.050;11.696;2024-02-16T10:15:40;4.93;;;1.50;;
17967;SDS011;9109;48.050;11.696;2024-02-16T10:18:51;5.35;;;1.13;;
17967;SDS011;9109;48.050;11.696;2024-02-16T10:22:04;7.10;;;1.88;;
17967;SDS011;9109;48.050;11.696;2024-02-16T10:25:07;7.57;;;1.10;;
17967;SDS011;9109;48.050;11.696;2024-02-16T10:28:14;5.82;;;1.63;;
17967;SDS011;9109;48.050;11.696;2024-02-16T10:31:17;6.20;;;1.77;;
17967;SDS011;9109;48.050;11.696;2024-02-16T10:34:28;6.93;;;1.30;;
17967;SDS011;9109;48.050;11.696;2024-02-16T10:37:39;7.93;;;1.40;;
17967;SDS011;9109;48.050;11.696;2024-02-16T10:40:42;5.97;;;1.25;;
17967;SDS011;9109;48.050;11.696;2024-02-16T10:47:11;7.05;;;0.98;;
17967;SDS011;9109;48.050;11.696;2024-02-16T10:50:14;3.83;;;1.45;;
17967;SDS011;9109;48.050;11.696;2024-02-16T10:56:45;1.40;;;0.90;;
17967;SDS011;9109;48.050;11.696;2024-02-16T10:59:53;1.15;;;0.70;;
17967;SDS011;9109;48.050;11.696;2024-02-16T11:03:01;5.38;;;1.00;;
17967;SDS011;9109;48.050;11.696;2024-02-16T11:06:11;1.38;;;0.75;;
17967;SDS011;9109;48.050;11.696;2024-02-16T11:09:33;5.90;;;0.93;;
17967;SDS011;9109;48.050;11.696;2024-02-16T11:12:45;2.92;;;1.08;;
17967;SDS011;9109;48.050;11.696;2024-02-16T11:15:56;2.28;;;1.10;;
17967;SDS011;9109;48.050;11.696;2024-02-16T11:19:03;1.42;;;1.00;;
17967;SDS011;9109;48.050;11.696;2024-02-16T11:22:14;1.92;;;1.10;;
17967;SDS011;9109;48.050;11.696;2024-02-16T11:25:17;2.28;;;1.10;;
17967;SDS011;9109;48.050;11.696;2024-02-16T11:28:34;1.45;;;0.95;;
17967;SDS011;9109;48.050;11.696;2024-02-16T11:31:36;2.08;;;1.10;;
17967;SDS011;9109;48.050;11.696;2024-02-16T11:34:44;1.88;;;1.00;;
17967;SDS011;9109;48.050;11.696;2024-02-16T11:37:56;1.88;;;1.00;;
17967;SDS011;9109;48.050;11.696;2024-02-16T11:41:06;1.98;;;1.05;;
17967;SDS011;9109;48.050;11.696;2024-02-16T11:44:29;2.60;;;1.10;;
17967;SDS011;9109;48.050;11.696;2024-02-16T11:47:32;2.50;;;1.02;;
17967;SDS011;9109;48.050;11.696;2024-02-16T11:50:41;1.23;;;0.90;;
17967;SDS011;9109;48.050;11.696;2024-02-16T11:53:44;2.00;;;1.10;;
17967;SDS011;9109;48.050;11.696;2024-02-16T11:56:48;1.77;;;0.98;;
17967;SDS011;9109;48.050;11.696;2024-02-16T11:59:54;1.95;;;1.10;;
17967;SDS011;9109;48.050;11.696;2024-02-16T12:03:02;3.92;;;1.08;;
17967;SDS011;9109;48.050;11.696;2024-02-16T12:06:07;2.47;;;1.33;;
17967;SDS011;9109;48.050;11.696;2024-02-16T12:09:12;1.27;;;1.10;;
17967;SDS011;9109;48.050;11.696;2024-02-16T12:12:31;5.63;;;1.27;;
17967;SDS011;9109;48.050;11.696;2024-02-16T12:15:36;2.90;;;1.15;;
17967;SDS011;9109;48.050;11.696;2024-02-16T12:18:42;3.72;;;1.10;;
17967;SDS011;9109;48.050;11.696;2024-02-16T12:21:51;2.00;;;1.08;;
17967;SDS011;9109;48.050;11.696;2024-02-16T12:25:02;6.22;;;1.63;;
17967;SDS011;9109;48.050;11.696;2024-02-16T12:28:12;3.95;;;1.30;;
17967;SDS011;9109;48.050;11.696;2024-02-16T12:31:23;2.25;;;1.08;;
17967;SDS011;9109;48.050;11.696;2024-02-16T12:34:38;1.73;;;1.10;;
17967;SDS011;9109;48.050;11.696;2024-02-16T12:37:45;2.42;;;1.30;;
17967;SDS011;9109;48.050;11.696;2024-02-16T12:40:49;2.05;;;1.17;;
17967;SDS011;9109;48.050;11.696;2024-02-16T12:44:01;4.95;;;1.42;;
17967;SDS011;9109;48.050;11.696;2024-02-16T12:47:13;3.30;;;1.17;;
17967;SDS011;9109;48.050;11.696;2024-02-16T12:50:34;4.07;;;1.30;;
17967;SDS011;9109;48.050;11.696;2024-02-16T12:53:49;1.00;;;0.90;;
17967;SDS011;9109;48.050;11.696;2024-02-16T12:56:56;2.67;;;1.05;;
17967;SDS011;9109;48.050;11.696;2024-02-16T13:00:18;3.33;;;1.27;;
17967;SDS011;9109;48.050;11.696;2024-02-16T13:03:28;5.88;;;1.95;;
17967;SDS011;9109;48.050;11.696;2024-02-16T13:06:33;2.45;;;1.25;;
17967;SDS011;9109;48.050;11.696;2024-02-16T13:13:05;3.15;;;1.45;;
17967;SDS011;9109;48.050;11.696;2024-02-16T13:16:22;2.95;;;1.50;;
17967;SDS011;9109;48.050;11.696;2024-02-16T13:19:25;3.17;;;1.40;;
17967;SDS011;9109;48.050;11.696;2024-02-16T13:22:30;2.17;;;1.35;;
17967;SDS011;9109;48.050;11.696;2024-02-16T13:25:35;6.35;;;1.45;;
17967;SDS011;9109;48.050;11.696;2024-02-16T13:28:48;1.88;;;1.20;;
17967;SDS011;9109;48.050;11.696;2024-02-16T13:32:04;2.33;;;1.10;;
17967;SDS011;9109;48.050;11.696;2024-02-16T13:35:09;1.58;;;1.10;;
17967;SDS011;9109;48.050;11.696;2024-02-16T13:38:23;3.95;;;1.27;;
17967;SDS011;9109;48.050;11.696;2024-02-16T13:41:25;1.95;;;1.00;;
17967;SDS011;9109;48.050;11.696;2024-02-16T13:44:27;1.60;;;1.00;;
17967;SDS011;9109;48.050;11.696;2024-02-16T13:47:30;2.40;;;1.40;;
17967;SDS011;9109;48.050;11.696;2024-02-16T13:50:36;4.85;;;1.40;;
17967;SDS011;9109;48.050;11.696;2024-02-16T13:53:56;2.70;;;1.10;;
17967;SDS011;9109;48.050;11.696;2024-02-16T13:57:08;9.55;;;1.38;;
17967;SDS011;9109;48.050;11.696;2024-02-16T14:00:13;3.72;;;1.08;;
17967;SDS011;9109;48.050;11.696;2024-02-16T14:03:18;4.15;;;1.40;;
17967;SDS011;9109;48.050;11.696;2024-02-16T14:06:29;3.30;;;1.20;;
17967;SDS011;9109;48.050;11.696;2024-02-16T14:09:34;2.75;;;1.10;;
17967;SDS011;9109;48.050;11.696;2024-02-16T14:12:45;3.22;;;1.75;;
17967;SDS011;9109;48.050;11.696;2024-02-16T14:15:54;3.10;;;1.40;;
17967;SDS011;9109;48.050;11.696;2024-02-16T14:18:56;5.00;;;1.40;;
17967;SDS011;9109;48.050;11.696;2024-02-16T14:22:05;6.00;;;1.60;;
17967;SDS011;9109;48.050;11.696;2024-02-16T14:25:10;12.88;;;1.60;;
17967;SDS011;9109;48.050;11.696;2024-02-16T14:28:39;5.25;;;1.52;;
17967;SDS011;9109;48.050;11.696;2024-02-16T14:31:45;2.35;;;1.40;;
17967;SDS011;9109;48.050;11.696;2024-02-16T14:34:55;6.50;;;1.45;;
17967;SDS011;9109;48.050;11.696;2024-02-16T14:38:11;2.72;;;1.40;;
17967;SDS011;9109;48.050;11.696;2024-02-16T14:41:14;7.03;;;1.48;;
17967;SDS011;9109;48.050;11.696;2024-02-16T14:44:19;6.25;;;1.67;;
17967;SDS011;9109;48.050;11.696;2024-02-16T14:47:21;7.38;;;1.58;;
17967;SDS011;9109;48.050;11.696;2024-02-16T14:50:31;3.60;;;1.52;;
17967;SDS011;9109;48.050;11.696;2024-02-16T14:53:36;6.55;;;1.73;;
17967;SDS011;9109;48.050;11.696;2024-02-16T14:56:38;2.85;;;1.40;;
17967;SDS011;9109;48.050;11.696;2024-02-16T14:59:41;2.00;;;1.10;;
17967;SDS011;9109;48.050;11.696;2024-02-16T15:02:44;3.65;;;1.30;;
17967;SDS011;9109;48.050;11.696;2024-02-16T15:05:48;7.65;;;1.88;;
17967;SDS011;9109;48.050;11.696;2024-02-16T15:08:57;1.92;;;0.95;;
17967;SDS011;9109;48.050;11.696;2024-02-16T15:12:03;4.50;;;1.00;;
17967;SDS011;9109;48.050;11.696;2024-02-16T15:15:12;2.03;;;1.20;;
17967;SDS011;9109;48.050;11.696;2024-02-16T15:18:14;7.40;;;1.55;;
17967;SDS011;9109;48.050;11.696;2024-02-16T15:21:24;6.20;;;1.23;;
17967;SDS011;9109;48.050;11.696;2024-02-16T15:24:29;4.90;;;1.45;;
17967;SDS011;9109;48.050;11.696;2024-02-16T15:27:31;3.72;;;1.42;;
17967;SDS011;9109;48.050;11.696;2024-02-16T15:30:36;3.33;;;1.30;;
17967;SDS011;9109;48.050;11.696;2024-02-16T15:33:38;8.73;;;1.65;;
17967;SDS011;9109;48.050;11.696;2024-02-16T15:36:44;4.43;;;1.50;;
17967;SDS011;9109;48.050;11.696;2024-02-16T15:39:51;5.60;;;1.63;;
17967;SDS011;9109;48.050;11.696;2024-02-16T15:43:01;8.48;;;1.90;;
17967;SDS011;9109;48.050;11.696;2024-02-16T15:46:05;6.35;;;1.58;;
17967;SDS011;9109;48.050;11.696;2024-02-16T15:49:07;7.15;;;1.67;;
17967;SDS011;9109;48.050;11.696;2024-02-16T15:52:12;2.85;;;1.30;;
17967;SDS011;9109;48.050;11.696;2024-02-16T15:55:18;3.88;;;1.30;;
17967;SDS011;9109;48.050;11.696;2024-02-16T15:58:34;8.02;;;1.50;;
17967;SDS011;9109;48.050;11.696;2024-02-16T16:01:37;5.75;;;1.63;;
17967;SDS011;9109;48.050;11.696;2024-02-16T16:04:42;10.35;;;1.85;;
17967;SDS011;9109;48.050;11.696;2024-02-16T16:07:52;10.60;;;1.63;;
17967;SDS011;9109;48.050;11.696;2024-02-16T16:10:56;5.43;;;1.48;;
17967;SDS011;9109;48.050;11.696;2024-02-16T16:14:04;5.63;;;1.90;;
17967;SDS011;9109;48.050;11.696;2024-02-16T16:17:06;4.88;;;1.50;;
17967;SDS011;9109;48.050;11.696;2024-02-16T16:20:19;8.75;;;1.75;;
17967;SDS011;9109;48.050;11.696;2024-02-16T16:23:25;3.67;;;1.50;;
17967;SDS011;9109;48.050;11.696;2024-02-16T16:26:31;7.82;;;2.42;;
17967;SDS011;9109;48.050;11.696;2024-02-16T16:29:37;6.85;;;1.33;;
17967;SDS011;9109;48.050;11.696;2024-02-16T16:32:45;3.05;;;1.30;;
17967;SDS011;9109;48.050;11.696;2024-02-16T16:35:54;12.65;;;1.60;;
17967;SDS011;9109;48.050;11.696;2024-02-16T16:39:03;6.65;;;1.50;;
17967;SDS011;9109;48.050;11.696;2024-02-16T16:42:13;5.07;;;1.33;;
17967;SDS011;9109;48.050;11.696;2024-02-16T16:45:15;2.70;;;1.20;;
17967;SDS011;9109;48.050;11.696;2024-02-16T16:48:18;6.63;;;1.50;;
17967;SDS011;9109;48.050;11.696;2024-02-16T16:51:20;6.10;;;1.90;;
17967;SDS011;9109;48.050;11.696;2024-02-16T16:54:25;2.63;;;1.50;;
17967;SDS011;9109;48.050;11.696;2024-02-16T16:57:38;9.07;;;1.63;;
17967;SDS011;9109;48.050;11.696;2024-02-16T17:00:46;3.10;;;1.60;;
17967;SDS011;9109;48.050;11.696;2024-02-16T17:03:49;8.73;;;1.95;;
17967;SDS011;9109;48.050;11.696;2024-02-16T17:06:55;5.50;;;1.55;;
17967;SDS011;9109;48.050;11.696;2024-02-16T17:09:57;7.10;;;1.67;;
17967;SDS011;9109;48.050;11.696;2024-02-16T17:13:01;8.10;;;1.85;;
17967;SDS011;9109;48.050;11.696;2024-02-16T17:16:04;8.02;;;1.70;;
17967;SDS011;9109;48.050;11.696;2024-02-16T17:19:11;13.18;;;1.83;;
17967;SDS011;9109;48.050;11.696;2024-02-16T17:22:14;3.83;;;1.70;;
17967;SDS011;9109;48.050;11.696;2024-02-16T17:25:20;6.72;;;1.35;;
17967;SDS011;9109;48.050;11.696;2024-02-16T17:28:25;7.90;;;1.80;;
17967;SDS011;9109;48.050;11.696;2024-02-16T17:31:32;6.68;;;1.70;;
17967;SDS011;9109;48.050;11.696;2024-02-16T17:34:35;4.03;;;1.83;;
17967;SDS011;9109;48.050;11.696;2024-02-16T17:37:39;6.90;;;2.10;;
17967;SDS011;9109;48.050;11.696;2024-02-16T17:40:45;3.47;;;1.55;;
17967;SDS011;9109;48.050;11.696;2024-02-16T17:43:52;3.40;;;1.65;;
17967;SDS011;9109;48.050;11.696;2024-02-16T17:50:16;7.45;;;1.95;;
17967;SDS011;9109;48.050;11.696;2024-02-16T17:53:19;6.57;;;1.83;;
17967;SDS011;9109;48.050;11.696;2024-02-16T17:56:26;7.40;;;1.73;;
17967;SDS011;9109;48.050;11.696;2024-02-16T17:59:44;2.95;;;1.83;;
17967;SDS011;9109;48.050;11.696;2024-02-16T18:02:53;9.05;;;1.70;;
17967;SDS011;9109;48.050;11.696;2024-02-16T18:05:59;9.05;;;2.67;;
17967;SDS011;9109;48.050;11.696;2024-02-16T18:09:08;11.43;;;2.10;;
17967;SDS011;9109;48.050;11.696;2024-02-16T18:12:11;5.43;;;2.40;;
17967;SDS011;9109;48.050;11.696;2024-02-16T18:22:06;10.90;;;2.67;;
17967;SDS011;9109;48.050;11.696;2024-02-16T18:25:27;7.32;;;2.08;;
17967;SDS011;9109;48.050;11.696;2024-02-16T18:32:24;4.70;;;2.05;;
17967;SDS011;9109;48.050;11.696;2024-02-16T18:35:30;8.85;;;2.80;;
17967;SDS011;9109;48.050;11.696;2024-02-16T18:38:36;4.78;;;2.40;;
17967;SDS011;9109;48.050;11.696;2024-02-16T18:41:43;7.40;;;2.35;;
17967;SDS011;9109;48.050;11.696;2024-02-16T18:44:45;5.32;;;2.10;;
17967;SDS011;9109;48.050;11.696;2024-02-16T18:47:52;6.57;;;2.20;;
17967;SDS011;9109;48.050;11.696;2024-02-16T18:54:56;12.68;;;2.72;;
17967;SDS011;9109;48.050;11.696;2024-02-16T18:58:04;15.03;;;2.43;;
17967;SDS011;9109;48.050;11.696;2024-02-16T19:01:12;5.25;;;2.53;;
17967;SDS011;9109;48.050;11.696;2024-02-16T19:04:16;8.57;;;2.83;;